sensor_id;sensor_type;location;lat;lon;timestamp;P1;durP1;ratioP1;P2;durP2;ratioP2
71622;SDS011;59473;53.214;5.728;2023-04-01T00:01:02;11.57;;;5.82;;
71622;SDS011;59473;53.214;5.728;2023-04-01T00:03:27;9.33;;;5.37;;
71622;SDS011;59473;53.214;5.728;2023-04-01T00:05:53;11.53;;;6.07;;
71622;SDS011;59473;53.214;5.728;2023-04-01T00:08:18;9.93;;;5.65;;
71622;SDS011;59473;53.214;5.728;2023-04-01T00:10:44;10.87;;;6.37;;
71622;SDS011;59473;53.214;5.728;2023-04-01T00:13:09;11.47;;;5.70;;
71622;SDS011;59473;53.214;5.728;2023-04-01T00:15:34;11.93;;;7.00;;
71622;SDS011;59473;53.214;5.728;2023-04-01T00:18:00;11.32;;;6.30;;
71622;SDS011;59473;53.214;5.728;2023-04-01T00:20:26;10.45;;;5.85;;
71622;SDS011;59473;53.214;5.728;2023-04-01T00:22:51;14.43;;;8.10;;
71622;SDS011;59473;53.214;5.728;2023-04-01T00:25:16;15.10;;;7.77;;
71622;SDS011;59473;53.214;5.728;2023-04-01T00:27:42;11.57;;;6.38;;
71622;SDS011;59473;53.214;5.728;2023-04-01T00:30:07;11.13;;;6.07;;
71622;SDS011;59473;53.214;5.728;2023-04-01T00:32:33;12.47;;;6.33;;
71622;SDS011;59473;53.214;5.728;2023-04-01T00:34:58;10.70;;;5.90;;
71622;SDS011;59473;53.214;5.728;2023-04-01T00:37:27;10.75;;;6.35;;
71622;SDS011;59473;53.214;5.728;2023-04-01T00:39:52;13.35;;;7.53;;
71622;SDS011;59473;53.214;5.728;2023-04-01T00:42:18;10.80;;;7.03;;
71622;SDS011;59473;53.214;5.728;2023-04-01T00:44:45;13.02;;;7.88;;
71622;SDS011;59473;53.214;5.728;2023-04-01T00:47:10;11.57;;;6.67;;
71622;SDS011;59473;53.214;5.728;2023-04-01T00:49:37;13.27;;;6.63;;
71622;SDS011;59473;53.214;5.728;2023-04-01T00:52:04;11.30;;;7.00;;
71622;SDS011;59473;53.214;5.728;2023-04-01T00:54:31;11.55;;;7.03;;
71622;SDS011;59473;53.214;5.728;2023-04-01T01:02:18;14.18;;;7.07;;
71622;SDS011;59473;53.214;5.728;2023-04-01T01:04:43;15.05;;;7.22;;
71622;SDS011;59473;53.214;5.728;2023-04-01T01:09:50;15.30;;;8.07;;
71622;SDS011;59473;53.214;5.728;2023-04-01T01:12:19;13.57;;;7.53;;
71622;SDS011;59473;53.214;5.728;2023-04-01T01:14:59;12.70;;;7.57;;
71622;SDS011;59473;53.214;5.728;2023-04-01T01:18:01;13.43;;;7.17;;
71622;SDS011;59473;53.214;5.728;2023-04-01T01:27:58;14.77;;;8.07;;
71622;SDS011;59473;53.214;5.728;2023-04-01T01:30:29;13.98;;;8.18;;
71622;SDS011;59473;53.214;5.728;2023-04-01T01:33:24;15.88;;;8.30;;
71622;SDS011;59473;53.214;5.728;2023-04-01T01:35:49;16.40;;;8.10;;
71622;SDS011;59473;53.214;5.728;2023-04-01T01:38:16;17.95;;;8.57;;
71622;SDS011;59473;53.214;5.728;2023-04-01T01:40:43;16.35;;;8.75;;
71622;SDS011;59473;53.214;5.728;2023-04-01T01:43:09;19.40;;;8.15;;
71622;SDS011;59473;53.214;5.728;2023-04-01T01:45:38;20.42;;;9.45;;
71622;SDS011;59473;53.214;5.728;2023-04-01T01:48:05;13.77;;;7.97;;
71622;SDS011;59473;53.214;5.728;2023-04-01T01:50:31;18.40;;;9.10;;
71622;SDS011;59473;53.214;5.728;2023-04-01T01:53:02;18.77;;;8.27;;
71622;SDS011;59473;53.214;5.728;2023-04-01T01:55:28;17.95;;;8.60;;
71622;SDS011;59473;53.214;5.728;2023-04-01T01:57:54;18.60;;;9.77;;
71622;SDS011;59473;53.214;5.728;2023-04-01T02:00:20;16.52;;;8.15;;
71622;SDS011;59473;53.214;5.728;2023-04-01T02:02:46;19.27;;;9.05;;
71622;SDS011;59473;53.214;5.728;2023-04-01T02:05:14;23.10;;;10.80;;
71622;SDS011;59473;53.214;5.728;2023-04-01T02:07:41;22.13;;;10.17;;
71622;SDS011;59473;53.214;5.728;2023-04-01T02:10:08;19.35;;;9.60;;
71622;SDS011;59473;53.214;5.728;2023-04-01T02:12:34;19.83;;;9.75;;
71622;SDS011;59473;53.214;5.728;2023-04-01T02:15:06;22.25;;;10.32;;
71622;SDS011;59473;53.214;5.728;2023-04-01T02:17:33;19.40;;;9.63;;
71622;SDS011;59473;53.214;5.728;2023-04-01T02:19:59;18.42;;;9.77;;
71622;SDS011;59473;53.214;5.728;2023-04-01T02:22:27;20.73;;;9.50;;
71622;SDS011;59473;53.214;5.728;2023-04-01T02:24:53;21.77;;;10.27;;
71622;SDS011;59473;53.214;5.728;2023-04-01T02:27:20;20.00;;;10.00;;
71622;SDS011;59473;53.214;5.728;2023-04-01T02:29:45;21.85;;;9.82;;
71622;SDS011;59473;53.214;5.728;2023-04-01T02:32:10;22.27;;;10.80;;
71622;SDS011;59473;53.214;5.728;2023-04-01T02:34:37;21.00;;;10.45;;
71622;SDS011;59473;53.214;5.728;2023-04-01T02:37:03;23.30;;;10.90;;
71622;SDS011;59473;53.214;5.728;2023-04-01T02:39:28;20.93;;;10.17;;
71622;SDS011;59473;53.214;5.728;2023-04-01T02:41:53;28.40;;;10.77;;
71622;SDS011;59473;53.214;5.728;2023-04-01T02:44:19;23.97;;;10.37;;
71622;SDS011;59473;53.214;5.728;2023-04-01T02:46:44;25.97;;;10.83;;
71622;SDS011;59473;53.214;5.728;2023-04-01T02:49:09;23.57;;;10.93;;
71622;SDS011;59473;53.214;5.728;2023-04-01T02:51:35;25.53;;;10.53;;
71622;SDS011;59473;53.214;5.728;2023-04-01T02:54:00;28.17;;;12.67;;
71622;SDS011;59473;53.214;5.728;2023-04-01T02:56:25;25.53;;;12.00;;
71622;SDS011;59473;53.214;5.728;2023-04-01T02:58:51;25.48;;;11.18;;
71622;SDS011;59473;53.214;5.728;2023-04-01T03:01:16;28.30;;;10.47;;
71622;SDS011;59473;53.214;5.728;2023-04-01T03:03:41;20.20;;;9.97;;
71622;SDS011;59473;53.214;5.728;2023-04-01T03:06:07;26.10;;;11.47;;
71622;SDS011;59473;53.214;5.728;2023-04-01T03:08:33;26.08;;;11.60;;
71622;SDS011;59473;53.214;5.728;2023-04-01T03:10:58;23.63;;;10.27;;
71622;SDS011;59473;53.214;5.728;2023-04-01T03:13:23;27.20;;;11.80;;
71622;SDS011;59473;53.214;5.728;2023-04-01T03:15:49;26.77;;;10.88;;
71622;SDS011;59473;53.214;5.728;2023-04-01T03:18:14;25.35;;;10.75;;
71622;SDS011;59473;53.214;5.728;2023-04-01T03:20:39;27.63;;;12.03;;
71622;SDS011;59473;53.214;5.728;2023-04-01T03:23:05;18.27;;;8.93;;
71622;SDS011;59473;53.214;5.728;2023-04-01T03:25:30;27.75;;;11.55;;
71622;SDS011;59473;53.214;5.728;2023-04-01T03:27:55;34.50;;;12.20;;
71622;SDS011;59473;53.214;5.728;2023-04-01T03:30:21;25.77;;;11.17;;
71622;SDS011;59473;53.214;5.728;2023-04-01T03:32:46;27.60;;;10.73;;
71622;SDS011;59473;53.214;5.728;2023-04-01T03:35:11;28.77;;;12.00;;
71622;SDS011;59473;53.214;5.728;2023-04-01T03:37:36;28.33;;;11.87;;
71622;SDS011;59473;53.214;5.728;2023-04-01T03:40:02;28.60;;;12.20;;
71622;SDS011;59473;53.214;5.728;2023-04-01T03:42:27;27.20;;;11.50;;
71622;SDS011;59473;53.214;5.728;2023-04-01T03:44:52;24.95;;;11.88;;
71622;SDS011;59473;53.214;5.728;2023-04-01T03:47:18;26.92;;;11.25;;
71622;SDS011;59473;53.214;5.728;2023-04-01T03:49:43;24.17;;;11.77;;
71622;SDS011;59473;53.214;5.728;2023-04-01T03:52:09;26.85;;;11.80;;
71622;SDS011;59473;53.214;5.728;2023-04-01T03:54:34;25.25;;;10.65;;
71622;SDS011;59473;53.214;5.728;2023-04-01T03:56:59;22.00;;;10.03;;
71622;SDS011;59473;53.214;5.728;2023-04-01T03:59:25;21.83;;;9.30;;
71622;SDS011;59473;53.214;5.728;2023-04-01T04:01:50;20.37;;;8.50;;
71622;SDS011;59473;53.214;5.728;2023-04-01T04:04:15;24.10;;;10.67;;
71622;SDS011;59473;53.214;5.728;2023-04-01T04:06:40;21.08;;;9.27;;
71622;SDS011;59473;53.214;5.728;2023-04-01T04:09:06;23.42;;;9.60;;
71622;SDS011;59473;53.214;5.728;2023-04-01T04:11:31;22.02;;;9.40;;
71622;SDS011;59473;53.214;5.728;2023-04-01T04:13:57;20.77;;;9.65;;
71622;SDS011;59473;53.214;5.728;2023-04-01T04:16:23;26.17;;;11.47;;
71622;SDS011;59473;53.214;5.728;2023-04-01T04:18:48;27.57;;;12.10;;
71622;SDS011;59473;53.214;5.728;2023-04-01T04:21:14;29.00;;;11.20;;
71622;SDS011;59473;53.214;5.728;2023-04-01T04:23:40;34.03;;;13.03;;
71622;SDS011;59473;53.214;5.728;2023-04-01T04:26:06;31.38;;;12.63;;
71622;SDS011;59473;53.214;5.728;2023-04-01T04:28:32;32.20;;;12.40;;
71622;SDS011;59473;53.214;5.728;2023-04-01T04:30:57;34.97;;;12.05;;
71622;SDS011;59473;53.214;5.728;2023-04-01T04:33:23;31.50;;;11.13;;
71622;SDS011;59473;53.214;5.728;2023-04-01T04:35:49;35.00;;;12.45;;
71622;SDS011;59473;53.214;5.728;2023-04-01T04:38:14;41.90;;;14.43;;
71622;SDS011;59473;53.214;5.728;2023-04-01T04:40:40;31.47;;;12.90;;
71622;SDS011;59473;53.214;5.728;2023-04-01T04:43:05;38.33;;;13.85;;
71622;SDS011;59473;53.214;5.728;2023-04-01T04:45:31;35.03;;;12.20;;
71622;SDS011;59473;53.214;5.728;2023-04-01T04:47:56;33.37;;;13.53;;
71622;SDS011;59473;53.214;5.728;2023-04-01T04:50:22;33.97;;;13.13;;
71622;SDS011;59473;53.214;5.728;2023-04-01T04:52:47;33.72;;;13.15;;
71622;SDS011;59473;53.214;5.728;2023-04-01T04:55:12;40.17;;;14.53;;
71622;SDS011;59473;53.214;5.728;2023-04-01T04:57:38;32.00;;;12.20;;
71622;SDS011;59473;53.214;5.728;2023-04-01T05:00:03;42.50;;;14.93;;
71622;SDS011;59473;53.214;5.728;2023-04-01T05:02:29;38.23;;;14.03;;
71622;SDS011;59473;53.214;5.728;2023-04-01T05:04:54;30.00;;;12.23;;
71622;SDS011;59473;53.214;5.728;2023-04-01T05:07:19;34.60;;;12.98;;
71622;SDS011;59473;53.214;5.728;2023-04-01T05:09:45;36.55;;;16.23;;
71622;SDS011;59473;53.214;5.728;2023-04-01T05:12:10;27.77;;;11.03;;
71622;SDS011;59473;53.214;5.728;2023-04-01T05:14:37;35.08;;;13.32;;
71622;SDS011;59473;53.214;5.728;2023-04-01T05:17:03;44.13;;;17.53;;
71622;SDS011;59473;53.214;5.728;2023-04-01T05:19:28;36.33;;;14.07;;
71622;SDS011;59473;53.214;5.728;2023-04-01T05:21:53;33.40;;;12.63;;
71622;SDS011;59473;53.214;5.728;2023-04-01T05:24:18;35.03;;;12.97;;
71622;SDS011;59473;53.214;5.728;2023-04-01T05:26:43;30.50;;;12.03;;
71622;SDS011;59473;53.214;5.728;2023-04-01T05:29:09;37.40;;;12.73;;
71622;SDS011;59473;53.214;5.728;2023-04-01T05:31:34;33.73;;;12.53;;
71622;SDS011;59473;53.214;5.728;2023-04-01T05:34:00;40.77;;;14.07;;
71622;SDS011;59473;53.214;5.728;2023-04-01T05:36:25;36.05;;;12.70;;
71622;SDS011;59473;53.214;5.728;2023-04-01T05:38:50;39.10;;;15.47;;
71622;SDS011;59473;53.214;5.728;2023-04-01T05:41:16;37.17;;;13.47;;
71622;SDS011;59473;53.214;5.728;2023-04-01T05:43:41;33.53;;;12.90;;
71622;SDS011;59473;53.214;5.728;2023-04-01T05:46:07;34.33;;;12.40;;
71622;SDS011;59473;53.214;5.728;2023-04-01T05:48:33;47.53;;;15.73;;
71622;SDS011;59473;53.214;5.728;2023-04-01T05:50:59;41.10;;;15.98;;
71622;SDS011;59473;53.214;5.728;2023-04-01T05:53:25;41.63;;;16.67;;
71622;SDS011;59473;53.214;5.728;2023-04-01T05:55:50;43.50;;;16.07;;
71622;SDS011;59473;53.214;5.728;2023-04-01T05:58:15;39.33;;;14.83;;
71622;SDS011;59473;53.214;5.728;2023-04-01T06:00:40;35.90;;;13.37;;
71622;SDS011;59473;53.214;5.728;2023-04-01T06:03:05;40.93;;;15.77;;
71622;SDS011;59473;53.214;5.728;2023-04-01T06:05:36;43.50;;;16.10;;
71622;SDS011;59473;53.214;5.728;2023-04-01T06:08:05;47.80;;;15.57;;
71622;SDS011;59473;53.214;5.728;2023-04-01T06:10:39;35.50;;;13.75;;
71622;SDS011;59473;53.214;5.728;2023-04-01T06:13:12;50.25;;;17.08;;
71622;SDS011;59473;53.214;5.728;2023-04-01T06:15:45;37.33;;;12.47;;
71622;SDS011;59473;53.214;5.728;2023-04-01T06:33:56;41.73;;;16.23;;
71622;SDS011;59473;53.214;5.728;2023-04-01T06:39:18;31.35;;;9.65;;
71622;SDS011;59473;53.214;5.728;2023-04-01T06:41:56;32.03;;;12.13;;
71622;SDS011;59473;53.214;5.728;2023-04-01T06:47:00;39.87;;;13.67;;
71622;SDS011;59473;53.214;5.728;2023-04-01T06:52:19;30.63;;;10.98;;
71622;SDS011;59473;53.214;5.728;2023-04-01T06:54:49;44.75;;;16.65;;
71622;SDS011;59473;53.214;5.728;2023-04-01T06:57:31;54.97;;;16.45;;
71622;SDS011;59473;53.214;5.728;2023-04-01T06:59:58;49.47;;;15.87;;
71622;SDS011;59473;53.214;5.728;2023-04-01T07:02:45;52.35;;;16.65;;
71622;SDS011;59473;53.214;5.728;2023-04-01T07:05:14;45.35;;;15.93;;
71622;SDS011;59473;53.214;5.728;2023-04-01T07:07:53;52.73;;;16.30;;
71622;SDS011;59473;53.214;5.728;2023-04-01T07:11:03;42.97;;;14.95;;
71622;SDS011;59473;53.214;5.728;2023-04-01T07:13:27;61.65;;;22.35;;
71622;SDS011;59473;53.214;5.728;2023-04-01T07:18:46;42.17;;;15.17;;
71622;SDS011;59473;53.214;5.728;2023-04-01T07:21:20;46.53;;;14.98;;
71622;SDS011;59473;53.214;5.728;2023-04-01T07:23:47;50.60;;;14.55;;
71622;SDS011;59473;53.214;5.728;2023-04-01T07:26:19;68.37;;;18.53;;
71622;SDS011;59473;53.214;5.728;2023-04-01T07:28:45;72.03;;;18.65;;
71622;SDS011;59473;53.214;5.728;2023-04-01T07:36:33;62.60;;;16.38;;
71622;SDS011;59473;53.214;5.728;2023-04-01T07:44:33;50.40;;;16.45;;
71622;SDS011;59473;53.214;5.728;2023-04-01T07:47:18;48.58;;;14.80;;
71622;SDS011;59473;53.214;5.728;2023-04-01T07:55:03;66.20;;;19.93;;
71622;SDS011;59473;53.214;5.728;2023-04-01T08:05:17;60.00;;;18.20;;
71622;SDS011;59473;53.214;5.728;2023-04-01T08:13:10;56.50;;;16.70;;
71622;SDS011;59473;53.214;5.728;2023-04-01T08:15:40;51.70;;;17.33;;
71622;SDS011;59473;53.214;5.728;2023-04-01T08:18:22;40.95;;;13.90;;
71622;SDS011;59473;53.214;5.728;2023-04-01T08:20:53;40.50;;;14.18;;
71622;SDS011;59473;53.214;5.728;2023-04-01T08:23:24;32.05;;;11.40;;
71622;SDS011;59473;53.214;5.728;2023-04-01T08:26:00;25.53;;;10.60;;
71622;SDS011;59473;53.214;5.728;2023-04-01T08:28:35;17.65;;;8.48;;
71622;SDS011;59473;53.214;5.728;2023-04-01T08:31:05;18.25;;;7.20;;
71622;SDS011;59473;53.214;5.728;2023-04-01T08:33:34;19.00;;;7.70;;
71622;SDS011;59473;53.214;5.728;2023-04-01T08:36:02;14.53;;;6.23;;
71622;SDS011;59473;53.214;5.728;2023-04-01T09:22:18;13.43;;;5.28;;
71622;SDS011;59473;53.214;5.728;2023-04-01T09:38:00;11.33;;;3.20;;
71622;SDS011;59473;53.214;5.728;2023-04-01T09:40:33;14.70;;;4.82;;
71622;SDS011;59473;53.214;5.728;2023-04-01T09:45:36;10.23;;;3.67;;
71622;SDS011;59473;53.214;5.728;2023-04-01T09:48:07;8.77;;;3.67;;
71622;SDS011;59473;53.214;5.728;2023-04-01T09:50:46;12.23;;;3.20;;
71622;SDS011;59473;53.214;5.728;2023-04-01T09:53:26;6.63;;;3.22;;
71622;SDS011;59473;53.214;5.728;2023-04-01T10:51:53;12.37;;;3.60;;
71622;SDS011;59473;53.214;5.728;2023-04-01T10:57:44;10.07;;;3.65;;
71622;SDS011;59473;53.214;5.728;2023-04-01T10:59:53;7.47;;;3.60;;
71622;SDS011;59473;53.214;5.728;2023-04-01T11:23:22;8.88;;;3.05;;
71622;SDS011;59473;53.214;5.728;2023-04-01T11:28:27;7.77;;;3.23;;
71622;SDS011;59473;53.214;5.728;2023-04-01T11:33:36;11.60;;;3.13;;
71622;SDS011;59473;53.214;5.728;2023-04-01T11:47:27;8.23;;;3.00;;
71622;SDS011;59473;53.214;5.728;2023-04-01T12:02:43;8.10;;;3.85;;
71622;SDS011;59473;53.214;5.728;2023-04-01T12:05:32;8.65;;;3.00;;
71622;SDS011;59473;53.214;5.728;2023-04-01T12:10:26;7.57;;;3.20;;
71622;SDS011;59473;53.214;5.728;2023-04-01T12:13:11;7.15;;;2.70;;
71622;SDS011;59473;53.214;5.728;2023-04-01T12:36:53;9.00;;;3.33;;
71622;SDS011;59473;53.214;5.728;2023-04-01T12:42:36;8.07;;;3.50;;
71622;SDS011;59473;53.214;5.728;2023-04-01T12:44:34;7.93;;;2.95;;
71622;SDS011;59473;53.214;5.728;2023-04-01T12:52:34;7.40;;;3.13;;
71622;SDS011;59473;53.214;5.728;2023-04-01T12:55:08;10.82;;;2.80;;
71622;SDS011;59473;53.214;5.728;2023-04-01T12:57:57;8.75;;;3.00;;
71622;SDS011;59473;53.214;5.728;2023-04-01T13:21:23;7.03;;;3.20;;
71622;SDS011;59473;53.214;5.728;2023-04-01T13:24:01;9.27;;;4.67;;
71622;SDS011;59473;53.214;5.728;2023-04-01T13:29:09;9.45;;;3.90;;
71622;SDS011;59473;53.214;5.728;2023-04-01T13:31:39;6.78;;;3.15;;
71622;SDS011;59473;53.214;5.728;2023-04-01T13:41:46;9.00;;;3.50;;
71622;SDS011;59473;53.214;5.728;2023-04-01T14:04:56;7.55;;;3.00;;
71622;SDS011;59473;53.214;5.728;2023-04-01T14:07:40;6.15;;;3.00;;
71622;SDS011;59473;53.214;5.728;2023-04-01T14:10:19;6.93;;;3.20;;
71622;SDS011;59473;53.214;5.728;2023-04-01T14:23:52;6.27;;;2.57;;
71622;SDS011;59473;53.214;5.728;2023-04-01T14:26:46;7.18;;;3.60;;
71622;SDS011;59473;53.214;5.728;2023-04-01T14:31:48;5.32;;;2.72;;
71622;SDS011;59473;53.214;5.728;2023-04-01T14:34:29;7.38;;;3.60;;
71622;SDS011;59473;53.214;5.728;2023-04-01T14:39:38;6.18;;;3.67;;
71622;SDS011;59473;53.214;5.728;2023-04-01T14:42:21;8.35;;;3.30;;
71622;SDS011;59473;53.214;5.728;2023-04-01T14:45:02;8.60;;;3.10;;
71622;SDS011;59473;53.214;5.728;2023-04-01T14:50:40;7.40;;;2.87;;
71622;SDS011;59473;53.214;5.728;2023-04-01T14:55:34;8.40;;;3.58;;
71622;SDS011;59473;53.214;5.728;2023-04-01T14:58:14;9.52;;;4.10;;
71622;SDS011;59473;53.214;5.728;2023-04-01T15:03:11;11.30;;;3.80;;
71622;SDS011;59473;53.214;5.728;2023-04-01T15:29:00;10.70;;;4.07;;
71622;SDS011;59473;53.214;5.728;2023-04-01T15:39:18;7.87;;;3.80;;
71622;SDS011;59473;53.214;5.728;2023-04-01T15:41:57;12.20;;;4.50;;
71622;SDS011;59473;53.214;5.728;2023-04-01T15:44:40;8.32;;;4.53;;
71622;SDS011;59473;53.214;5.728;2023-04-01T15:47:16;11.25;;;4.78;;
71622;SDS011;59473;53.214;5.728;2023-04-01T16:10:23;15.32;;;5.47;;
71622;SDS011;59473;53.214;5.728;2023-04-01T16:13:24;10.45;;;4.82;;
71622;SDS011;59473;53.214;5.728;2023-04-01T16:15:56;13.40;;;5.23;;
71622;SDS011;59473;53.214;5.728;2023-04-01T16:18:27;9.27;;;4.80;;
71622;SDS011;59473;53.214;5.728;2023-04-01T16:20:57;13.32;;;5.28;;
71622;SDS011;59473;53.214;5.728;2023-04-01T16:33:51;12.07;;;5.50;;
71622;SDS011;59473;53.214;5.728;2023-04-01T16:36:40;13.10;;;5.28;;
71622;SDS011;59473;53.214;5.728;2023-04-01T16:41:48;11.35;;;5.75;;
71622;SDS011;59473;53.214;5.728;2023-04-01T16:47:07;13.88;;;6.47;;
71622;SDS011;59473;53.214;5.728;2023-04-01T16:49:39;13.93;;;6.50;;
71622;SDS011;59473;53.214;5.728;2023-04-01T16:57:18;15.00;;;5.25;;
71622;SDS011;59473;53.214;5.728;2023-04-01T17:02:16;13.50;;;6.20;;
71622;SDS011;59473;53.214;5.728;2023-04-01T17:04:48;10.57;;;5.07;;
71622;SDS011;59473;53.214;5.728;2023-04-01T17:12:39;17.30;;;6.13;;
71622;SDS011;59473;53.214;5.728;2023-04-01T17:17:48;13.70;;;5.53;;
71622;SDS011;59473;53.214;5.728;2023-04-01T17:20:26;15.32;;;6.22;;
71622;SDS011;59473;53.214;5.728;2023-04-01T17:23:10;12.90;;;5.90;;
71622;SDS011;59473;53.214;5.728;2023-04-01T17:25:38;16.97;;;6.30;;
71622;SDS011;59473;53.214;5.728;2023-04-01T17:28:16;11.10;;;5.82;;
71622;SDS011;59473;53.214;5.728;2023-04-01T17:30:55;15.35;;;6.07;;
71622;SDS011;59473;53.214;5.728;2023-04-01T17:33:28;12.68;;;6.43;;
71622;SDS011;59473;53.214;5.728;2023-04-01T17:38:59;10.13;;;5.50;;
71622;SDS011;59473;53.214;5.728;2023-04-01T17:42:13;12.55;;;5.90;;
71622;SDS011;59473;53.214;5.728;2023-04-01T17:44:15;12.77;;;6.10;;
71622;SDS011;59473;53.214;5.728;2023-04-01T17:51:55;14.10;;;5.77;;
71622;SDS011;59473;53.214;5.728;2023-04-01T17:57:13;11.60;;;5.35;;
71622;SDS011;59473;53.214;5.728;2023-04-01T18:00:02;10.77;;;5.50;;
71622;SDS011;59473;53.214;5.728;2023-04-01T18:18:46;13.97;;;5.80;;
71622;SDS011;59473;53.214;5.728;2023-04-01T18:21:47;9.70;;;5.50;;
71622;SDS011;59473;53.214;5.728;2023-04-01T18:24:13;12.40;;;6.30;;
71622;SDS011;59473;53.214;5.728;2023-04-01T18:26:42;9.88;;;4.80;;
71622;SDS011;59473;53.214;5.728;2023-04-01T18:34:47;12.18;;;5.38;;
71622;SDS011;59473;53.214;5.728;2023-04-01T18:39:46;11.98;;;6.15;;
71622;SDS011;59473;53.214;5.728;2023-04-01T18:47:47;15.48;;;6.20;;
71622;SDS011;59473;53.214;5.728;2023-04-01T18:50:15;15.43;;;6.20;;
71622;SDS011;59473;53.214;5.728;2023-04-01T18:52:45;10.88;;;5.47;;
71622;SDS011;59473;53.214;5.728;2023-04-01T18:57:55;7.37;;;4.10;;
71622;SDS011;59473;53.214;5.728;2023-04-01T19:00:38;11.13;;;5.82;;
71622;SDS011;59473;53.214;5.728;2023-04-01T19:03:11;13.00;;;5.53;;
71622;SDS011;59473;53.214;5.728;2023-04-01T19:05:41;12.88;;;5.55;;
71622;SDS011;59473;53.214;5.728;2023-04-01T19:08:27;11.75;;;5.72;;
71622;SDS011;59473;53.214;5.728;2023-04-01T19:10:57;14.00;;;5.93;;
71622;SDS011;59473;53.214;5.728;2023-04-01T19:20:55;9.53;;;5.87;;
71622;SDS011;59473;53.214;5.728;2023-04-01T19:26:04;9.10;;;5.43;;
71622;SDS011;59473;53.214;5.728;2023-04-01T19:28:39;12.95;;;5.82;;
71622;SDS011;59473;53.214;5.728;2023-04-01T19:36:32;11.77;;;5.90;;
71622;SDS011;59473;53.214;5.728;2023-04-01T19:41:46;11.57;;;5.57;;
71622;SDS011;59473;53.214;5.728;2023-04-01T19:44:22;10.02;;;5.78;;
71622;SDS011;59473;53.214;5.728;2023-04-01T19:46:56;11.07;;;5.32;;
71622;SDS011;59473;53.214;5.728;2023-04-01T19:54:43;13.00;;;5.45;;
71622;SDS011;59473;53.214;5.728;2023-04-01T20:00:13;12.70;;;5.53;;
71622;SDS011;59473;53.214;5.728;2023-04-01T20:07:51;15.97;;;5.77;;
71622;SDS011;59473;53.214;5.728;2023-04-01T20:10:22;13.95;;;5.75;;
71622;SDS011;59473;53.214;5.728;2023-04-01T20:17:50;10.25;;;5.25;;
71622;SDS011;59473;53.214;5.728;2023-04-01T20:20:20;14.13;;;6.00;;
71622;SDS011;59473;53.214;5.728;2023-04-01T20:28:09;14.55;;;5.65;;
71622;SDS011;59473;53.214;5.728;2023-04-01T20:35:57;11.68;;;5.45;;
71622;SDS011;59473;53.214;5.728;2023-04-01T20:46:16;13.98;;;5.53;;
71622;SDS011;59473;53.214;5.728;2023-04-01T20:51:15;13.73;;;5.30;;
71622;SDS011;59473;53.214;5.728;2023-04-01T20:53:43;13.97;;;5.80;;
71622;SDS011;59473;53.214;5.728;2023-04-01T21:01:39;11.43;;;4.80;;
71622;SDS011;59473;53.214;5.728;2023-04-01T21:27:39;11.55;;;5.00;;
71622;SDS011;59473;53.214;5.728;2023-04-01T21:32:44;10.63;;;5.68;;
71622;SDS011;59473;53.214;5.728;2023-04-01T21:36:00;10.17;;;5.47;;
71622;SDS011;59473;53.214;5.728;2023-04-01T21:40:52;9.75;;;5.32;;
71622;SDS011;59473;53.214;5.728;2023-04-01T21:49:08;13.47;;;5.57;;
71622;SDS011;59473;53.214;5.728;2023-04-01T21:57:16;11.57;;;5.25;;
71622;SDS011;59473;53.214;5.728;2023-04-01T22:07:12;11.85;;;5.68;;
71622;SDS011;59473;53.214;5.728;2023-04-01T22:09:39;9.35;;;5.13;;
71622;SDS011;59473;53.214;5.728;2023-04-01T22:17:42;13.40;;;5.90;;
71622;SDS011;59473;53.214;5.728;2023-04-01T22:25:04;7.97;;;4.20;;
71622;SDS011;59473;53.214;5.728;2023-04-01T22:32:40;13.88;;;6.07;;
71622;SDS011;59473;53.214;5.728;2023-04-01T22:42:47;12.48;;;4.80;;
71622;SDS011;59473;53.214;5.728;2023-04-01T22:50:25;10.37;;;4.40;;
71622;SDS011;59473;53.214;5.728;2023-04-01T22:52:56;9.45;;;4.60;;
71622;SDS011;59473;53.214;5.728;2023-04-01T22:55:25;8.80;;;4.82;;
71622;SDS011;59473;53.214;5.728;2023-04-01T23:05:50;7.03;;;4.60;;
71622;SDS011;59473;53.214;5.728;2023-04-01T23:11:00;10.95;;;5.05;;
71622;SDS011;59473;53.214;5.728;2023-04-01T23:13:41;16.23;;;5.43;;
71622;SDS011;59473;53.214;5.728;2023-04-01T23:16:08;11.10;;;5.10;;
71622;SDS011;59473;53.214;5.728;2023-04-01T23:18:42;12.60;;;5.00;;
71622;SDS011;59473;53.214;5.728;2023-04-01T23:26:29;11.40;;;5.13;;
71622;SDS011;59473;53.214;5.728;2023-04-01T23:28:55;13.07;;;4.93;;
71622;SDS011;59473;53.214;5.728;2023-04-01T23:31:40;14.23;;;5.93;;
71622;SDS011;59473;53.214;5.728;2023-04-01T23:36:44;11.95;;;5.55;;
71622;SDS011;59473;53.214;5.728;2023-04-01T23:41:47;12.07;;;5.68;;
71622;SDS011;59473;53.214;5.728;2023-04-01T23:44:13;11.70;;;5.53;;
71622;SDS011;59473;53.214;5.728;2023-04-01T23:46:39;10.50;;;5.05;;
71622;SDS011;59473;53.214;5.728;2023-04-01T23:49:05;11.45;;;5.22;;
71622;SDS011;59473;53.214;5.728;2023-04-01T23:51:37;13.73;;;6.35;;
71622;SDS011;59473;53.214;5.728;2023-04-01T23:56:53;11.25;;;5.45;;
71622;SDS011;59473;53.214;5.728;2023-04-01T23:59:29;12.47;;;5.50;;
